createdAt,value
2019-02-19T00:00:02.835Z,2.00
2019-02-19T00:02:35.437Z,1.82
2019-02-19T00:05:06.733Z,1.95
2019-02-19T00:07:37.713Z,2.47
2019-02-19T00:10:09.300Z,2.63
2019-02-19T00:12:40.345Z,3.17
2019-02-19T00:15:11.894Z,2.27
2019-02-19T00:17:43.144Z,1.55
2019-02-19T00:20:14.366Z,1.87
2019-02-19T00:22:45.356Z,1.57
2019-02-19T00:25:16.468Z,2.42
2019-02-19T00:27:47.752Z,2.45
2019-02-19T00:30:19.059Z,1.37
2019-02-19T00:32:50.292Z,1.40
2019-02-19T00:35:21.529Z,1.67
2019-02-19T00:37:52.782Z,1.75
2019-02-19T00:40:24.033Z,1.50
2019-02-19T00:42:55.300Z,2.17
2019-02-19T00:45:26.715Z,1.50
2019-02-19T00:47:57.694Z,1.57
2019-02-19T00:50:28.741Z,1.45
2019-02-19T00:52:59.803Z,2.03
2019-02-19T00:55:31.110Z,2.10
2019-02-19T00:58:02.465Z,2.00
2019-02-19T01:00:33.592Z,1.67
2019-02-19T01:03:04.743Z,1.60
2019-02-19T01:05:36.244Z,1.77
2019-02-19T01:08:07.687Z,1.20
2019-02-19T01:10:39.126Z,1.53
2019-02-19T01:13:10.660Z,1.70
2019-02-19T01:15:42.128Z,1.80
2019-02-19T01:18:13.147Z,1.17
2019-02-19T01:20:44.109Z,2.05
2019-02-19T01:23:15.419Z,2.27
2019-02-19T01:25:46.680Z,1.65
2019-02-19T01:28:18.264Z,1.70
2019-02-19T01:30:49.785Z,1.25
2019-02-19T01:33:21.673Z,1.83
2019-02-19T01:35:52.621Z,1.60
2019-02-19T01:38:23.940Z,1.55
2019-02-19T01:40:54.904Z,1.80
2019-02-19T01:43:25.884Z,2.02
2019-02-19T01:45:57.142Z,2.10
2019-02-19T01:48:28.122Z,1.50
2019-02-19T01:50:59.346Z,1.53
2019-02-19T01:53:30.851Z,1.40
2019-02-19T01:56:02.991Z,2.10
2019-02-19T01:58:34.416Z,1.65
2019-02-19T02:01:05.384Z,1.63
2019-02-19T02:03:37.016Z,2.07
2019-02-19T02:06:08.343Z,1.62
2019-02-19T02:08:39.311Z,1.60
2019-02-19T02:11:10.286Z,1.63
2019-02-19T02:13:41.320Z,1.77
2019-02-19T02:16:12.581Z,1.90
2019-02-19T02:18:43.566Z,2.05
2019-02-19T02:21:14.811Z,1.73
2019-02-19T02:23:46.058Z,1.57
2019-02-19T02:26:18.637Z,1.87
2019-02-19T02:28:50.521Z,1.60
2019-02-19T02:31:21.491Z,1.87
2019-02-19T02:33:52.715Z,1.60
2019-02-19T02:36:23.967Z,2.02
2019-02-19T02:38:55.279Z,1.43
2019-02-19T02:41:26.524Z,1.65
2019-02-19T02:43:57.523Z,1.97
2019-02-19T02:46:28.507Z,1.30
2019-02-19T02:48:59.863Z,1.63
2019-02-19T02:51:31.240Z,1.22
2019-02-19T02:54:03.177Z,1.25
2019-02-19T02:56:40.283Z,1.80
2019-02-19T02:59:11.523Z,1.40
2019-02-19T03:01:42.482Z,1.60
2019-02-19T03:04:13.497Z,2.40
2019-02-19T03:06:52.086Z,1.57
2019-02-19T03:09:23.390Z,1.07
2019-02-19T03:11:54.999Z,1.37
2019-02-19T03:14:26.068Z,1.37
2019-02-19T03:16:58.302Z,1.13
2019-02-19T03:19:29.369Z,1.17
2019-02-19T03:22:00.322Z,1.83
2019-02-19T03:24:31.313Z,1.67
2019-02-19T03:27:03.183Z,1.90
2019-02-19T03:29:35.132Z,1.20
2019-02-19T03:32:06.308Z,2.03
2019-02-19T03:34:37.292Z,1.83
2019-02-19T03:37:08.576Z,1.20
2019-02-19T03:39:39.539Z,1.40
2019-02-19T03:42:10.692Z,1.30
2019-02-19T03:44:41.707Z,1.57
2019-02-19T03:47:12.652Z,1.60
2019-02-19T03:49:43.716Z,1.22
2019-02-19T03:52:14.932Z,1.20
2019-02-19T03:54:46.955Z,1.10
2019-02-19T03:57:18.523Z,0.93
2019-02-19T03:59:50.008Z,1.30
2019-02-19T04:02:20.952Z,1.40
2019-02-19T04:04:52.003Z,1.00
2019-02-19T04:07:23.225Z,1.20
2019-02-19T04:09:54.490Z,1.10
2019-02-19T04:12:25.720Z,1.15
2019-02-19T04:14:56.694Z,1.10
2019-02-19T04:17:27.679Z,1.10
2019-02-19T04:19:58.656Z,1.37
2019-02-19T04:22:29.942Z,1.67
2019-02-19T04:25:01.063Z,1.03
2019-02-19T04:27:32.630Z,0.60
2019-02-19T04:30:03.715Z,0.93
2019-02-19T04:32:34.746Z,1.57
2019-02-19T04:35:06.240Z,1.10
2019-02-19T04:37:37.239Z,1.15
2019-02-19T04:40:08.339Z,1.30
2019-02-19T04:42:39.363Z,1.27
2019-02-19T04:45:10.485Z,1.00
2019-02-19T04:47:42.566Z,0.90
2019-02-19T04:50:13.686Z,1.03
2019-02-19T04:52:44.644Z,1.27
2019-02-19T04:55:15.697Z,0.90
2019-02-19T04:57:46.722Z,1.17
2019-02-19T05:00:18.835Z,0.82
2019-02-19T05:02:51.586Z,1.02
2019-02-19T05:05:22.588Z,1.67
2019-02-19T05:07:53.543Z,1.30
2019-02-19T05:10:24.788Z,1.02
2019-02-19T05:12:56.239Z,1.03
2019-02-19T05:15:27.499Z,0.93
2019-02-19T05:17:58.836Z,1.27
2019-02-19T05:20:29.813Z,1.03
2019-02-19T05:23:00.774Z,1.13
2019-02-19T05:25:31.818Z,1.47
2019-02-19T05:28:02.781Z,1.57
2019-02-19T05:30:33.796Z,1.00
2019-02-19T05:33:04.805Z,1.40
2019-02-19T05:35:35.842Z,1.20
2019-02-19T05:38:07.411Z,1.10
2019-02-19T05:40:38.431Z,1.33
2019-02-19T05:43:09.661Z,1.02
2019-02-19T05:45:40.706Z,1.10
2019-02-19T05:48:12.138Z,0.78
2019-02-19T05:50:43.693Z,1.72
2019-02-19T05:53:15.255Z,1.00
2019-02-19T05:55:46.551Z,1.32
2019-02-19T05:58:18.742Z,1.20
2019-02-19T06:00:50.638Z,1.17
2019-02-19T06:03:21.814Z,1.20
2019-02-19T06:05:53.233Z,1.10
2019-02-19T06:08:24.548Z,0.90
2019-02-19T06:10:55.725Z,1.22
2019-02-19T06:13:26.964Z,1.07
2019-02-19T06:15:57.999Z,1.33
2019-02-19T06:18:29.118Z,1.20
2019-02-19T06:21:00.420Z,1.23
2019-02-19T06:23:31.679Z,0.90
2019-02-19T06:26:02.898Z,1.20
2019-02-19T06:28:34.026Z,0.95
2019-02-19T06:31:05.570Z,1.20
2019-02-19T06:33:38.555Z,0.84
2019-02-19T06:36:09.672Z,1.00
2019-02-19T06:38:41.515Z,1.30
2019-02-19T06:41:12.826Z,1.18
2019-02-19T06:43:43.912Z,1.43
2019-02-19T06:46:15.431Z,1.10
2019-02-19T06:48:46.671Z,1.50
2019-02-19T06:51:18.885Z,1.07
2019-02-19T06:53:49.859Z,1.70
2019-02-19T06:56:21.223Z,1.23
2019-02-19T06:58:52.601Z,1.35
2019-02-19T07:01:55.601Z,1.25
2019-02-19T07:04:30.698Z,1.30
2019-02-19T07:07:02.354Z,1.00
2019-02-19T07:09:33.300Z,1.33
2019-02-19T07:12:04.265Z,1.40
2019-02-19T07:14:35.499Z,1.47
2019-02-19T07:17:15.436Z,1.57
2019-02-19T07:19:41.453Z,0.97
2019-02-19T07:22:12.413Z,1.50
2019-02-19T07:24:43.454Z,1.50
2019-02-19T07:27:14.425Z,1.10
2019-02-19T07:29:45.713Z,1.17
2019-02-19T07:32:16.694Z,1.30
2019-02-19T07:34:47.667Z,1.10
2019-02-19T07:37:19.258Z,1.27
2019-02-19T07:39:50.216Z,1.35
2019-02-19T07:42:21.659Z,1.60
2019-02-19T07:44:53.090Z,1.22
2019-02-19T07:47:24.945Z,1.25
2019-02-19T07:49:55.897Z,1.50
2019-02-19T07:52:27.125Z,1.40
2019-02-19T07:54:58.082Z,1.67
2019-02-19T07:57:29.349Z,0.95
2019-02-19T08:00:00.359Z,0.90
2019-02-19T08:02:31.289Z,1.57
2019-02-19T08:05:02.237Z,1.47
2019-02-19T08:07:33.712Z,1.60
2019-02-19T08:10:05.159Z,1.60
2019-02-19T08:12:38.552Z,1.40
2019-02-19T08:15:10.926Z,0.97
2019-02-19T08:17:42.159Z,1.83
2019-02-19T08:20:16.124Z,1.30
2019-02-19T08:22:46.182Z,1.70
2019-02-19T08:25:17.750Z,1.30
2019-02-19T08:27:49.004Z,1.40
2019-02-19T08:30:20.940Z,1.77
2019-02-19T08:32:52.299Z,1.40
2019-02-19T08:35:23.648Z,1.55
2019-02-19T08:37:55.031Z,1.52
2019-02-19T08:40:26.016Z,1.30
2019-02-19T08:42:57.068Z,1.57
2019-02-19T08:45:28.142Z,1.37
2019-02-19T08:47:59.200Z,1.47
2019-02-19T08:50:30.521Z,2.22
2019-02-19T08:53:01.577Z,1.50
2019-02-19T08:55:32.554Z,1.80
2019-02-19T08:58:03.555Z,1.50
2019-02-19T09:00:34.883Z,1.67
2019-02-19T09:03:05.862Z,1.30
2019-02-19T09:05:38.202Z,2.20
2019-02-19T09:08:09.444Z,1.33
2019-02-19T09:10:40.410Z,1.47
2019-02-19T09:13:11.406Z,1.57
2019-02-19T09:15:43.338Z,1.30
2019-02-19T09:18:14.616Z,1.80
2019-02-19T09:20:46.184Z,1.90
2019-02-19T09:23:17.544Z,1.70
2019-02-19T09:25:49.330Z,1.13
2019-02-19T09:28:20.555Z,1.50
2019-02-19T09:30:51.558Z,1.25
2019-02-19T09:33:22.550Z,1.60
2019-02-19T09:35:53.866Z,1.47
2019-02-19T09:38:25.185Z,1.87
2019-02-19T09:40:57.486Z,1.73
2019-02-19T09:43:35.359Z,1.75
2019-02-19T09:46:01.512Z,1.40
2019-02-19T09:48:32.492Z,1.67
2019-02-19T09:51:03.795Z,1.63
2019-02-19T09:53:35.008Z,1.80
2019-02-19T09:56:06.119Z,1.33
2019-02-19T09:58:38.066Z,1.32
2019-02-19T10:01:09.451Z,1.85
2019-02-19T10:03:40.613Z,1.80
2019-02-19T10:06:11.890Z,1.70
2019-02-19T10:08:42.956Z,1.85
2019-02-19T10:11:14.280Z,2.30
2019-02-19T10:13:45.528Z,1.53
2019-02-19T10:16:17.007Z,1.57
2019-02-19T10:18:48.326Z,1.92
2019-02-19T10:21:19.559Z,1.33
2019-02-19T10:23:50.998Z,1.60
2019-02-19T10:26:21.969Z,1.45
2019-02-19T10:28:55.171Z,1.62
2019-02-19T10:31:26.624Z,1.20
2019-02-19T10:33:57.782Z,1.13
2019-02-19T10:36:28.760Z,1.50
2019-02-19T10:39:00.035Z,1.40
2019-02-19T10:41:31.246Z,1.40
2019-02-19T10:44:02.470Z,1.23
2019-02-19T10:46:33.444Z,0.85
2019-02-19T10:49:04.601Z,1.37
2019-02-19T10:51:35.571Z,1.33
2019-02-19T10:54:06.896Z,1.50
2019-02-19T10:56:38.375Z,1.57
2019-02-19T10:59:09.362Z,1.50
2019-02-19T11:01:40.668Z,1.37
2019-02-19T11:04:11.651Z,1.27
2019-02-19T11:06:42.874Z,1.80
2019-02-19T11:09:14.145Z,1.83
2019-02-19T11:11:45.369Z,1.40
2019-02-19T11:14:16.388Z,1.32
2019-02-19T11:16:47.361Z,1.20
2019-02-19T11:19:18.337Z,1.53
2019-02-19T11:21:49.297Z,1.20
2019-02-19T11:24:20.284Z,1.43
2019-02-19T11:26:51.483Z,1.20
2019-02-19T11:29:22.541Z,1.40
2019-02-19T11:31:54.078Z,1.60
2019-02-19T11:34:25.414Z,1.33
2019-02-19T11:36:56.371Z,1.80
2019-02-19T11:39:27.419Z,1.67
2019-02-19T11:41:58.730Z,1.62
2019-02-19T11:44:29.956Z,1.70
2019-02-19T11:47:01.160Z,1.40
2019-02-19T11:49:32.143Z,1.20
2019-02-19T11:52:25.636Z,1.20
2019-02-19T11:54:59.914Z,1.20
2019-02-19T11:57:31.123Z,2.43
2019-02-19T12:00:02.091Z,2.10
2019-02-19T12:02:33.291Z,1.93
2019-02-19T12:05:04.287Z,1.40
2019-02-19T12:07:35.698Z,1.60
2019-02-19T12:10:07.257Z,1.57
2019-02-19T12:12:39.628Z,1.70
2019-02-19T12:15:11.109Z,1.37
2019-02-19T12:17:45.046Z,2.60
2019-02-19T12:20:16.265Z,1.80
2019-02-19T12:22:47.713Z,1.75
2019-02-19T12:25:20.338Z,1.63
2019-02-19T12:27:51.684Z,1.70
2019-02-19T12:30:22.750Z,1.73
2019-02-19T12:32:53.722Z,1.50
2019-02-19T12:35:24.773Z,1.40
2019-02-19T12:37:55.742Z,1.47
2019-02-19T12:40:27.015Z,1.65
2019-02-19T12:42:58.639Z,1.60
2019-02-19T12:45:30.092Z,1.65
2019-02-19T12:48:01.057Z,2.07
2019-02-19T12:50:32.376Z,1.83
2019-02-19T12:53:03.427Z,1.77
2019-02-19T12:55:34.477Z,2.17
2019-02-19T12:58:06.109Z,1.57
2019-02-19T13:00:37.432Z,1.90
2019-02-19T13:03:08.938Z,1.77
2019-02-19T13:05:40.050Z,1.43
2019-02-19T13:08:11.304Z,2.20
2019-02-19T13:10:42.292Z,1.90
2019-02-19T13:13:13.272Z,2.22
2019-02-19T13:15:44.341Z,2.60
2019-02-19T13:18:15.489Z,2.00
2019-02-19T13:20:46.823Z,2.52
2019-02-19T13:23:17.798Z,1.67
2019-02-19T13:25:50.322Z,1.63
2019-02-19T13:28:21.600Z,2.00
2019-02-19T13:30:53.046Z,1.73
2019-02-19T13:33:24.189Z,1.60
2019-02-19T13:35:55.452Z,2.02
2019-02-19T13:38:26.507Z,2.53
2019-02-19T13:40:57.526Z,1.93
2019-02-19T13:43:28.844Z,2.40
2019-02-19T13:46:00.369Z,1.90
2019-02-19T13:48:31.877Z,2.33
2019-02-19T13:51:03.680Z,1.90
2019-02-19T13:53:38.786Z,1.85
2019-02-19T13:56:10.104Z,2.90
2019-02-19T13:58:41.957Z,2.27
2019-02-19T14:01:12.942Z,3.02
2019-02-19T14:03:44.150Z,2.43
2019-02-19T14:06:15.132Z,3.07
2019-02-19T14:08:47.072Z,2.87
2019-02-19T14:11:18.050Z,2.43
2019-02-19T14:14:10.433Z,1.93
2019-02-19T14:16:52.186Z,2.23
2019-02-19T14:19:39.650Z,1.82
2019-02-19T14:22:28.666Z,2.65
2019-02-19T14:25:17.376Z,2.15
2019-02-19T14:28:06.287Z,2.55
2019-02-19T14:30:51.388Z,2.60
2019-02-19T14:33:49.102Z,2.43
2019-02-19T14:36:45.240Z,2.63
2019-02-19T14:39:34.670Z,2.50
2019-02-19T14:42:31.004Z,2.62
2019-02-19T14:45:14.980Z,2.43
2019-02-19T14:48:11.182Z,2.70
2019-02-19T14:51:08.392Z,2.10
2019-02-19T14:53:50.087Z,2.10
2019-02-19T14:56:34.034Z,2.87
2019-02-19T14:59:13.237Z,2.50
2019-02-19T15:01:59.061Z,3.07
2019-02-19T15:04:56.376Z,3.00
2019-02-19T15:07:35.630Z,2.33
2019-02-19T15:10:19.152Z,2.90
2019-02-19T15:13:13.195Z,2.30
2019-02-19T15:15:51.844Z,2.75
2019-02-19T15:18:40.830Z,2.70
2019-02-19T15:21:23.437Z,2.40
2019-02-19T15:24:05.625Z,2.80
2019-02-19T15:26:55.096Z,2.53
2019-02-19T15:30:00.574Z,2.45
2019-02-19T15:32:49.131Z,2.13
2019-02-19T15:35:39.322Z,2.80
2019-02-19T15:38:38.916Z,2.57
2019-02-19T15:41:31.479Z,3.07
2019-02-19T15:44:10.131Z,2.40
2019-02-19T15:46:59.809Z,2.60
2019-02-19T15:49:59.255Z,2.70
2019-02-19T15:52:49.880Z,2.37
2019-02-19T15:55:47.347Z,2.17
2019-02-19T15:58:34.801Z,2.33
2019-02-19T16:01:28.006Z,3.00
2019-02-19T16:04:03.465Z,2.77
2019-02-19T16:06:46.766Z,2.50
2019-02-19T16:09:26.930Z,3.27
2019-02-19T16:12:10.117Z,2.50
2019-02-19T16:15:02.827Z,2.67
2019-02-19T16:18:11.485Z,2.55
2019-02-19T16:20:49.435Z,2.87
2019-02-19T16:23:39.411Z,2.53
2019-02-19T16:26:28.900Z,2.20
2019-02-19T16:29:08.053Z,3.30
2019-02-19T16:31:58.425Z,2.47
2019-02-19T16:34:51.385Z,2.47
2019-02-19T16:37:38.192Z,2.60
2019-02-19T16:40:26.912Z,2.80
2019-02-19T16:43:29.023Z,2.77
2019-02-19T16:46:11.089Z,2.37
2019-02-19T16:49:10.475Z,2.80
2019-02-19T16:51:59.064Z,2.62
2019-02-19T16:54:48.975Z,2.15
2019-02-19T16:57:47.189Z,2.33
2019-02-19T17:00:36.206Z,3.00
2019-02-19T17:03:25.418Z,2.97
2019-02-19T17:06:04.800Z,2.80
2019-02-19T17:08:41.628Z,3.60
2019-02-19T17:11:27.569Z,4.70
2019-02-19T17:14:17.284Z,6.70
2019-02-19T17:17:00.531Z,8.20
2019-02-19T17:19:45.291Z,6.55
2019-02-19T17:22:22.903Z,9.00
2019-02-19T17:25:12.193Z,4.77
2019-02-19T17:27:58.613Z,5.17
2019-02-19T17:31:04.273Z,4.77
2019-02-19T17:33:53.150Z,2.55
2019-02-19T17:36:42.207Z,2.93
2019-02-19T17:39:18.339Z,2.95
2019-02-19T17:42:05.368Z,3.70
2019-02-19T17:44:55.333Z,4.42
2019-02-19T17:47:51.684Z,3.67
2019-02-19T17:50:38.205Z,3.57
2019-02-19T17:53:10.620Z,2.20
2019-02-19T17:55:59.648Z,2.10
2019-02-19T17:58:47.412Z,2.35
2019-02-19T18:01:37.095Z,2.27
2019-02-19T18:04:23.854Z,1.84
2019-02-19T18:07:13.956Z,1.90
2019-02-19T18:10:02.660Z,2.10
2019-02-19T18:13:08.510Z,2.02
2019-02-19T18:15:48.073Z,1.80
2019-02-19T18:18:37.312Z,1.93
2019-02-19T18:21:09.443Z,2.15
2019-02-19T18:23:40.452Z,1.60
2019-02-19T18:26:11.758Z,1.33
2019-02-19T18:28:42.979Z,1.60
2019-02-19T18:31:14.625Z,1.32
2019-02-19T18:33:45.766Z,1.82
2019-02-19T18:36:17.390Z,1.70
2019-02-19T18:38:48.452Z,2.80
2019-02-19T18:41:21.500Z,3.80
2019-02-19T18:43:52.506Z,3.43
2019-02-19T18:46:23.478Z,2.47
2019-02-19T18:48:55.587Z,2.80
2019-02-19T18:51:26.802Z,3.00
2019-02-19T18:53:58.254Z,3.77
2019-02-19T18:56:29.658Z,2.60
2019-02-19T18:59:00.779Z,4.17
2019-02-19T19:01:31.763Z,4.00
2019-02-19T19:04:02.768Z,4.20
2019-02-19T19:06:34.029Z,4.80
2019-02-19T19:09:06.935Z,3.70
2019-02-19T19:11:38.585Z,3.27
2019-02-19T19:14:09.931Z,3.43
2019-02-19T19:16:41.208Z,3.00
2019-02-19T19:19:12.322Z,2.77
2019-02-19T19:21:43.577Z,3.27
2019-02-19T19:24:15.413Z,2.47
2019-02-19T19:26:46.709Z,3.47
2019-02-19T19:29:17.937Z,2.87
2019-02-19T19:31:48.913Z,2.67
2019-02-19T19:34:21.530Z,4.37
2019-02-19T19:36:52.464Z,6.00
2019-02-19T19:39:23.974Z,7.30
2019-02-19T19:41:55.042Z,5.60
2019-02-19T19:44:26.063Z,5.73
2019-02-19T19:46:57.392Z,5.15
2019-02-19T19:49:28.745Z,3.07
2019-02-19T19:51:59.979Z,3.00
2019-02-19T19:54:31.345Z,2.23
2019-02-19T19:57:04.362Z,2.30
2019-02-19T19:59:35.854Z,2.27
2019-02-19T20:02:07.208Z,1.70
2019-02-19T20:04:39.616Z,1.40
2019-02-19T20:07:10.945Z,2.40
2019-02-19T20:09:41.945Z,1.90
2019-02-19T20:12:13.648Z,1.77
2019-02-19T20:14:45.301Z,1.23
2019-02-19T20:17:16.376Z,0.90
2019-02-19T20:19:47.348Z,1.35
2019-02-19T20:22:18.832Z,1.27
2019-02-19T20:24:50.165Z,1.53
2019-02-19T20:27:21.380Z,1.77
2019-02-19T20:29:52.356Z,1.30
2019-02-19T20:32:23.802Z,1.30
2019-02-19T20:34:55.280Z,1.47
2019-02-19T20:37:26.659Z,1.27
2019-02-19T20:39:57.673Z,1.35
2019-02-19T20:42:28.736Z,1.20
2019-02-19T20:45:01.147Z,1.30
2019-02-19T20:47:32.529Z,1.30
2019-02-19T20:50:03.490Z,2.03
2019-02-19T20:52:35.163Z,2.63
2019-02-19T20:55:07.124Z,1.97
2019-02-19T20:57:38.379Z,1.97
2019-02-19T21:00:14.320Z,1.57
2019-02-19T21:02:47.092Z,1.30
2019-02-19T21:05:18.123Z,1.73
2019-02-19T21:07:50.558Z,1.73
2019-02-19T21:10:21.807Z,1.67
2019-02-19T21:12:53.477Z,2.40
2019-02-19T21:15:24.523Z,1.93
2019-02-19T21:17:55.601Z,1.60
2019-02-19T21:20:26.630Z,2.33
2019-02-19T21:22:57.728Z,1.77
2019-02-19T21:25:31.021Z,1.27
2019-02-19T21:28:02.410Z,1.12
2019-02-19T21:30:34.892Z,2.03
2019-02-19T21:33:06.591Z,1.80
2019-02-19T21:35:37.784Z,1.53
2019-02-19T21:38:10.225Z,1.57
2019-02-19T21:40:41.186Z,1.47
2019-02-19T21:43:12.181Z,1.53
2019-02-19T21:45:43.236Z,2.10
2019-02-19T21:48:14.708Z,2.15
2019-02-19T21:50:45.948Z,1.37
2019-02-19T21:53:17.516Z,1.40
2019-02-19T21:55:48.859Z,1.47
2019-02-19T21:58:20.400Z,1.82
2019-02-19T22:00:51.531Z,1.72
2019-02-19T22:03:24.094Z,2.00
2019-02-19T22:05:55.054Z,1.80
2019-02-19T22:08:26.028Z,2.02
2019-02-19T22:10:56.995Z,1.83
2019-02-19T22:13:28.930Z,2.60
2019-02-19T22:16:00.213Z,2.72
2019-02-19T22:18:31.461Z,2.05
2019-02-19T22:21:13.302Z,2.03
2019-02-19T22:23:44.260Z,2.67
2019-02-19T22:26:15.578Z,1.87
2019-02-19T22:28:47.632Z,1.95
2019-02-19T22:31:19.365Z,1.93
2019-02-19T22:33:50.325Z,1.47
2019-02-19T22:36:21.769Z,1.42
2019-02-19T22:38:54.069Z,2.60
2019-02-19T22:41:25.307Z,2.33
2019-02-19T22:43:56.368Z,1.47
2019-02-19T22:46:27.567Z,2.15
2019-02-19T22:48:58.556Z,1.40
2019-02-19T22:51:30.097Z,2.60
2019-02-19T22:54:12.187Z,2.00
2019-02-19T22:56:45.208Z,3.20
2019-02-19T22:59:16.534Z,1.90
2019-02-19T23:02:00.362Z,2.15
2019-02-19T23:04:31.710Z,2.08
2019-02-19T23:07:03.209Z,2.40
2019-02-19T23:09:35.145Z,2.33
2019-02-19T23:12:06.475Z,3.03
2019-02-19T23:14:37.437Z,3.73
2019-02-19T23:17:08.864Z,3.60
2019-02-19T23:19:40.300Z,3.52
2019-02-19T23:22:11.561Z,3.30
2019-02-19T23:24:42.513Z,3.43
2019-02-19T23:27:13.560Z,3.13
2019-02-19T23:29:44.890Z,3.52
2019-02-19T23:32:16.006Z,3.10
2019-02-19T23:34:48.652Z,3.30
2019-02-19T23:37:22.101Z,2.90
2019-02-19T23:39:53.258Z,3.45
2019-02-19T23:42:24.808Z,3.87
2019-02-19T23:44:55.838Z,2.85
2019-02-19T23:47:27.194Z,2.73
2019-02-19T23:49:58.158Z,2.93
2019-02-19T23:52:30.569Z,2.30
2019-02-19T23:55:01.685Z,3.37
2019-02-19T23:57:33.306Z,2.80
